sensor_id;sensor_type;location;lat;lon;timestamp;pressure;altitude;pressure_sealevel;temperature;humidity
21185;BME280;18176;49.502;11.754;2023-05-16T00:02:18;96518.50;;;18.70;52.24
21185;BME280;18176;49.502;11.754;2023-05-16T00:06:18;96520.25;;;18.61;52.27
21185;BME280;18176;49.502;11.754;2023-05-16T00:10:19;96520.03;;;18.58;52.38
21185;BME280;18176;49.502;11.754;2023-05-16T00:14:21;96510.81;;;18.45;53.08
21185;BME280;18176;49.502;11.754;2023-05-16T00:18:22;96509.78;;;18.41;52.69
21185;BME280;18176;49.502;11.754;2023-05-16T00:22:23;96523.25;;;18.36;52.51
21185;BME280;18176;49.502;11.754;2023-05-16T00:26:24;96532.09;;;18.37;52.91
21185;BME280;18176;49.502;11.754;2023-05-16T00:30:27;96515.63;;;18.24;53.16
21185;BME280;18176;49.502;11.754;2023-05-16T00:34:27;96529.16;;;18.33;52.90
21185;BME280;18176;49.502;11.754;2023-05-16T00:38:28;96530.09;;;18.23;52.85
21185;BME280;18176;49.502;11.754;2023-05-16T00:42:29;96529.88;;;18.20;52.87
21185;BME280;18176;49.502;11.754;2023-05-16T00:46:32;96539.72;;;18.06;53.13
21185;BME280;18176;49.502;11.754;2023-05-16T00:50:33;96521.59;;;17.98;53.89
21185;BME280;18176;49.502;11.754;2023-05-16T00:54:35;96528.03;;;17.97;53.49
21185;BME280;18176;49.502;11.754;2023-05-16T00:58:36;96518.66;;;17.94;53.32
21185;BME280;18176;49.502;11.754;2023-05-16T01:02:39;96522.25;;;17.85;54.01
21185;BME280;18176;49.502;11.754;2023-05-16T01:06:41;96519.78;;;17.93;53.35
21185;BME280;18176;49.502;11.754;2023-05-16T01:10:49;96524.38;;;17.88;53.54
21185;BME280;18176;49.502;11.754;2023-05-16T01:15:03;96516.84;;;17.66;54.23
21185;BME280;18176;49.502;11.754;2023-05-16T01:19:19;96514.63;;;17.73;54.90
21185;BME280;18176;49.502;11.754;2023-05-16T01:23:40;96517.13;;;17.65;55.00
21185;BME280;18176;49.502;11.754;2023-05-16T01:27:46;96523.16;;;17.75;54.37
21185;BME280;18176;49.502;11.754;2023-05-16T01:31:48;96512.06;;;17.63;54.21
21185;BME280;18176;49.502;11.754;2023-05-16T01:35:58;96527.34;;;17.63;54.34
21185;BME280;18176;49.502;11.754;2023-05-16T01:40:08;96518.75;;;17.66;54.31
21185;BME280;18176;49.502;11.754;2023-05-16T01:44:24;96519.41;;;18.00;53.37
21185;BME280;18176;49.502;11.754;2023-05-16T01:48:31;96515.53;;;17.64;54.27
21185;BME280;18176;49.502;11.754;2023-05-16T01:52:39;96525.72;;;17.62;54.34
21185;BME280;18176;49.502;11.754;2023-05-16T01:56:48;96517.13;;;17.65;54.24
21185;BME280;18176;49.502;11.754;2023-05-16T02:01:00;96513.53;;;17.45;54.81
21185;BME280;18176;49.502;11.754;2023-05-16T02:05:01;96525.50;;;17.58;54.20
21185;BME280;18176;49.502;11.754;2023-05-16T02:09:02;96511.97;;;17.44;54.62
21185;BME280;18176;49.502;11.754;2023-05-16T02:13:02;96527.00;;;17.40;55.20
21185;BME280;18176;49.502;11.754;2023-05-16T02:17:06;96505.06;;;17.10;55.45
21185;BME280;18176;49.502;11.754;2023-05-16T02:21:06;96535.59;;;17.37;54.91
21185;BME280;18176;49.502;11.754;2023-05-16T02:25:08;96534.34;;;17.25;55.16
21185;BME280;18176;49.502;11.754;2023-05-16T02:29:10;96524.59;;;17.10;55.32
21185;BME280;18176;49.502;11.754;2023-05-16T02:33:14;96533.19;;;17.07;55.73
21185;BME280;18176;49.502;11.754;2023-05-16T02:37:15;96537.41;;;17.13;55.54
21185;BME280;18176;49.502;11.754;2023-05-16T02:41:18;96534.78;;;17.08;55.64
21185;BME280;18176;49.502;11.754;2023-05-16T02:45:19;96537.56;;;16.93;56.18
21185;BME280;18176;49.502;11.754;2023-05-16T02:49:22;96532.22;;;16.93;55.57
21185;BME280;18176;49.502;11.754;2023-05-16T02:53:23;96550.91;;;16.98;56.05
21185;BME280;18176;49.502;11.754;2023-05-16T02:57:23;96554.59;;;17.07;56.09
21185;BME280;18176;49.502;11.754;2023-05-16T03:01:23;96552.69;;;17.41;55.57
21185;BME280;18176;49.502;11.754;2023-05-16T03:05:26;96557.94;;;17.57;55.29
21185;BME280;18176;49.502;11.754;2023-05-16T03:09:27;96552.59;;;17.57;55.27
21185;BME280;18176;49.502;11.754;2023-05-16T03:13:27;96551.53;;;17.52;55.35
21185;BME280;18176;49.502;11.754;2023-05-16T03:17:28;96552.59;;;17.57;55.40
21185;BME280;18176;49.502;11.754;2023-05-16T03:21:31;96534.41;;;17.48;55.32
21185;BME280;18176;49.502;11.754;2023-05-16T03:25:31;96527.69;;;17.56;54.92
21185;BME280;18176;49.502;11.754;2023-05-16T03:29:32;96529.00;;;17.59;54.51
21185;BME280;18176;49.502;11.754;2023-05-16T03:33:33;96554.22;;;17.47;55.06
21185;BME280;18176;49.502;11.754;2023-05-16T03:37:37;96548.81;;;17.29;55.53
21185;BME280;18176;49.502;11.754;2023-05-16T03:41:37;96546.91;;;16.96;56.38
21185;BME280;18176;49.502;11.754;2023-05-16T03:45:38;96545.59;;;16.93;55.87
21185;BME280;18176;49.502;11.754;2023-05-16T03:49:38;96551.13;;;16.68;56.58
21185;BME280;18176;49.502;11.754;2023-05-16T03:53:41;96537.84;;;16.53;56.74
21185;BME280;18176;49.502;11.754;2023-05-16T03:57:42;96562.44;;;16.60;56.97
21185;BME280;18176;49.502;11.754;2023-05-16T04:01:44;96537.06;;;16.52;56.36
21185;BME280;18176;49.502;11.754;2023-05-16T04:05:44;96531.94;;;16.56;55.96
21185;BME280;18176;49.502;11.754;2023-05-16T04:09:47;96573.06;;;16.65;56.81
21185;BME280;18176;49.502;11.754;2023-05-16T04:13:47;96575.03;;;16.93;55.58
21185;BME280;18176;49.502;11.754;2023-05-16T04:17:48;96571.28;;;16.94;55.57
21185;BME280;18176;49.502;11.754;2023-05-16T04:21:48;96577.13;;;17.01;55.99
21185;BME280;18176;49.502;11.754;2023-05-16T04:25:51;96571.00;;;16.96;56.30
21185;BME280;18176;49.502;11.754;2023-05-16T04:29:53;96565.94;;;16.94;56.26
21185;BME280;18176;49.502;11.754;2023-05-16T04:33:54;96580.66;;;17.30;56.22
21185;BME280;18176;49.502;11.754;2023-05-16T04:37:54;96577.22;;;17.59;55.41
21185;BME280;18176;49.502;11.754;2023-05-16T04:41:57;96578.81;;;17.60;55.84
21185;BME280;18176;49.502;11.754;2023-05-16T04:45:58;96568.50;;;17.72;55.04
21185;BME280;18176;49.502;11.754;2023-05-16T04:49:58;96581.47;;;18.12;54.21
21185;BME280;18176;49.502;11.754;2023-05-16T04:53:59;96579.28;;;18.38;53.72
21185;BME280;18176;49.502;11.754;2023-05-16T04:58:02;96589.81;;;18.58;53.69
21185;BME280;18176;49.502;11.754;2023-05-16T05:02:02;96582.03;;;18.56;52.46
21185;BME280;18176;49.502;11.754;2023-05-16T05:06:04;96588.63;;;18.40;52.92
21185;BME280;18176;49.502;11.754;2023-05-16T05:10:06;96582.47;;;18.63;52.43
21185;BME280;18176;49.502;11.754;2023-05-16T05:14:09;96591.47;;;18.91;51.92
21185;BME280;18176;49.502;11.754;2023-05-16T05:18:10;96542.03;;;19.11;52.27
21185;BME280;18176;49.502;11.754;2023-05-16T05:22:10;96585.72;;;19.67;52.12
21185;BME280;18176;49.502;11.754;2023-05-16T05:26:11;96569.03;;;19.97;51.36
21185;BME280;18176;49.502;11.754;2023-05-16T05:30:14;96576.78;;;20.12;50.41
21185;BME280;18176;49.502;11.754;2023-05-16T05:34:14;96588.16;;;19.82;50.84
21185;BME280;18176;49.502;11.754;2023-05-16T05:38:14;96582.56;;;20.19;50.10
21185;BME280;18176;49.502;11.754;2023-05-16T05:42:15;96578.03;;;20.34;49.56
21185;BME280;18176;49.502;11.754;2023-05-16T05:46:17;96580.72;;;20.34;48.74
21185;BME280;18176;49.502;11.754;2023-05-16T05:50:18;96592.38;;;20.43;48.59
21185;BME280;18176;49.502;11.754;2023-05-16T05:54:19;96592.06;;;20.58;48.42
21185;BME280;18176;49.502;11.754;2023-05-16T05:58:20;96574.78;;;20.59;48.21
21185;BME280;18176;49.502;11.754;2023-05-16T06:02:23;96580.84;;;20.78;47.06
21185;BME280;18176;49.502;11.754;2023-05-16T06:06:24;96580.91;;;20.86;46.28
21185;BME280;18176;49.502;11.754;2023-05-16T06:10:25;96589.59;;;20.97;45.90
21185;BME280;18176;49.502;11.754;2023-05-16T06:14:25;96590.22;;;21.16;45.73
21185;BME280;18176;49.502;11.754;2023-05-16T06:18:28;96594.53;;;21.39;44.63
21185;BME280;18176;49.502;11.754;2023-05-16T06:22:29;96567.47;;;21.44;44.98
21185;BME280;18176;49.502;11.754;2023-05-16T06:26:29;96594.88;;;21.91;43.80
21185;BME280;18176;49.502;11.754;2023-05-16T06:30:30;96594.63;;;22.01;43.12
21185;BME280;18176;49.502;11.754;2023-05-16T06:34:33;96592.94;;;22.61;41.76
21185;BME280;18176;49.502;11.754;2023-05-16T06:38:34;96603.13;;;22.64;41.83
21185;BME280;18176;49.502;11.754;2023-05-16T06:42:34;96601.13;;;23.21;40.62
21185;BME280;18176;49.502;11.754;2023-05-16T06:46:34;96581.41;;;23.12;39.83
21185;BME280;18176;49.502;11.754;2023-05-16T06:50:37;96586.81;;;23.12;40.00
21185;BME280;18176;49.502;11.754;2023-05-16T06:54:38;96579.50;;;23.21;39.92
21185;BME280;18176;49.502;11.754;2023-05-16T06:58:38;96585.84;;;23.17;40.12
21185;BME280;18176;49.502;11.754;2023-05-16T07:02:38;96594.13;;;23.37;39.43
21185;BME280;18176;49.502;11.754;2023-05-16T07:06:41;96590.97;;;23.52;39.27
21185;BME280;18176;49.502;11.754;2023-05-16T07:10:42;96582.50;;;23.54;38.67
21185;BME280;18176;49.502;11.754;2023-05-16T07:14:42;96594.38;;;23.87;38.53
21185;BME280;18176;49.502;11.754;2023-05-16T07:18:44;96595.56;;;23.52;38.49
21185;BME280;18176;49.502;11.754;2023-05-16T07:22:47;96596.13;;;23.83;38.85
21185;BME280;18176;49.502;11.754;2023-05-16T07:26:47;96593.72;;;23.90;38.48
21185;BME280;18176;49.502;11.754;2023-05-16T07:30:48;96593.91;;;23.85;38.54
21185;BME280;18176;49.502;11.754;2023-05-16T07:34:48;96582.56;;;24.47;38.30
21185;BME280;18176;49.502;11.754;2023-05-16T07:38:52;96588.81;;;24.97;36.75
21185;BME280;18176;49.502;11.754;2023-05-16T07:42:53;96584.47;;;25.37;37.20
21185;BME280;18176;49.502;11.754;2023-05-16T07:46:53;96593.16;;;25.84;35.71
21185;BME280;18176;49.502;11.754;2023-05-16T07:50:54;96593.97;;;25.85;35.42
21185;BME280;18176;49.502;11.754;2023-05-16T07:54:57;96611.34;;;25.84;35.96
21185;BME280;18176;49.502;11.754;2023-05-16T07:58:58;96611.53;;;25.99;35.67
21185;BME280;18176;49.502;11.754;2023-05-16T08:02:59;96611.06;;;26.54;35.10
21185;BME280;18176;49.502;11.754;2023-05-16T08:07:00;96613.31;;;27.00;33.99
21185;BME280;18176;49.502;11.754;2023-05-16T08:11:03;96624.66;;;26.90;33.47
21185;BME280;18176;49.502;11.754;2023-05-16T08:15:06;96601.34;;;27.41;33.34
21185;BME280;18176;49.502;11.754;2023-05-16T08:19:07;96614.56;;;27.55;33.38
21185;BME280;18176;49.502;11.754;2023-05-16T08:23:08;96620.59;;;28.19;32.16
21185;BME280;18176;49.502;11.754;2023-05-16T08:27:10;96609.13;;;28.92;31.48
21185;BME280;18176;49.502;11.754;2023-05-16T08:31:11;96597.91;;;30.50;29.20
21185;BME280;18176;49.502;11.754;2023-05-16T08:35:11;96600.63;;;32.72;27.26
21185;BME280;18176;49.502;11.754;2023-05-16T08:39:12;96606.41;;;33.04;25.65
21185;BME280;18176;49.502;11.754;2023-05-16T08:43:15;96603.09;;;33.49;25.71
21185;BME280;18176;49.502;11.754;2023-05-16T08:47:19;96608.81;;;32.65;25.51
21185;BME280;18176;49.502;11.754;2023-05-16T08:51:26;96598.72;;;32.76;26.70
21185;BME280;18176;49.502;11.754;2023-05-16T08:55:27;96601.44;;;33.34;25.64
21185;BME280;18176;49.502;11.754;2023-05-16T08:59:31;96613.72;;;32.45;25.85
21185;BME280;18176;49.502;11.754;2023-05-16T09:03:31;96622.47;;;30.95;27.97
21185;BME280;18176;49.502;11.754;2023-05-16T09:07:33;96627.31;;;30.57;28.67
21185;BME280;18176;49.502;11.754;2023-05-16T09:11:33;96623.13;;;29.22;28.43
21185;BME280;18176;49.502;11.754;2023-05-16T09:15:36;96630.13;;;28.41;30.42
21185;BME280;18176;49.502;11.754;2023-05-16T09:19:38;96628.28;;;28.61;30.95
21185;BME280;18176;49.502;11.754;2023-05-16T09:23:42;96635.44;;;29.00;30.43
21185;BME280;18176;49.502;11.754;2023-05-16T09:27:45;96629.38;;;29.60;30.63
21185;BME280;18176;49.502;11.754;2023-05-16T09:31:48;96623.91;;;29.99;29.20
21185;BME280;18176;49.502;11.754;2023-05-16T09:35:55;96629.34;;;29.22;30.19
21185;BME280;18176;49.502;11.754;2023-05-16T09:39:55;96611.16;;;29.83;29.30
21185;BME280;18176;49.502;11.754;2023-05-16T09:43:56;96594.44;;;29.69;29.30
21185;BME280;18176;49.502;11.754;2023-05-16T09:48:05;96590.16;;;30.78;27.95
21185;BME280;18176;49.502;11.754;2023-05-16T09:52:06;96581.00;;;31.23;27.79
21185;BME280;18176;49.502;11.754;2023-05-16T09:56:10;96559.91;;;31.90;26.21
21185;BME280;18176;49.502;11.754;2023-05-16T10:00:12;96588.34;;;31.15;27.10
21185;BME280;18176;49.502;11.754;2023-05-16T10:04:15;96582.41;;;31.40;26.97
21185;BME280;18176;49.502;11.754;2023-05-16T10:08:16;96576.03;;;30.50;26.75
21185;BME280;18176;49.502;11.754;2023-05-16T10:12:18;96578.78;;;29.85;27.28
21185;BME280;18176;49.502;11.754;2023-05-16T10:16:21;96575.63;;;28.91;28.36
21185;BME280;18176;49.502;11.754;2023-05-16T10:20:26;96582.53;;;28.54;29.14
21185;BME280;18176;49.502;11.754;2023-05-16T10:24:39;96599.94;;;28.03;31.85
21185;BME280;18176;49.502;11.754;2023-05-16T10:28:43;96591.59;;;26.40;34.02
21185;BME280;18176;49.502;11.754;2023-05-16T10:32:45;96590.69;;;25.46;36.15
21185;BME280;18176;49.502;11.754;2023-05-16T10:36:50;96600.00;;;25.16;36.72
21185;BME280;18176;49.502;11.754;2023-05-16T10:40:52;96595.06;;;25.09;37.33
21185;BME280;18176;49.502;11.754;2023-05-16T10:44:53;96594.56;;;25.16;37.07
21185;BME280;18176;49.502;11.754;2023-05-16T10:49:19;96593.38;;;24.47;38.35
21185;BME280;18176;49.502;11.754;2023-05-16T10:53:30;96604.41;;;25.00;38.56
21185;BME280;18176;49.502;11.754;2023-05-16T10:57:32;96604.19;;;24.17;40.62
21185;BME280;18176;49.502;11.754;2023-05-16T11:01:34;96601.28;;;24.89;39.67
21185;BME280;18176;49.502;11.754;2023-05-16T11:05:35;96603.69;;;24.91;39.80
21185;BME280;18176;49.502;11.754;2023-05-16T11:09:43;96602.25;;;25.55;39.42
21185;BME280;18176;49.502;11.754;2023-05-16T11:13:53;96610.75;;;25.99;41.19
21185;BME280;18176;49.502;11.754;2023-05-16T11:18:05;96616.50;;;26.54;37.92
21185;BME280;18176;49.502;11.754;2023-05-16T11:22:24;96610.94;;;28.06;35.24
21185;BME280;18176;49.502;11.754;2023-05-16T11:26:27;96617.78;;;28.78;32.57
21185;BME280;18176;49.502;11.754;2023-05-16T11:30:27;96603.69;;;28.92;31.11
21185;BME280;18176;49.502;11.754;2023-05-16T11:34:29;96616.88;;;28.90;30.37
21185;BME280;18176;49.502;11.754;2023-05-16T11:38:30;96616.84;;;29.21;30.44
21185;BME280;18176;49.502;11.754;2023-05-16T11:42:36;96627.66;;;31.56;27.67
21185;BME280;18176;49.502;11.754;2023-05-16T11:46:39;96617.41;;;30.97;27.55
21185;BME280;18176;49.502;11.754;2023-05-16T11:50:40;96628.78;;;29.32;28.60
21185;BME280;18176;49.502;11.754;2023-05-16T11:54:40;96632.22;;;28.47;29.51
21185;BME280;18176;49.502;11.754;2023-05-16T11:58:43;96630.53;;;28.12;30.56
21185;BME280;18176;49.502;11.754;2023-05-16T12:02:44;96621.25;;;26.93;31.18
21185;BME280;18176;49.502;11.754;2023-05-16T12:06:58;96632.75;;;27.27;31.50
21185;BME280;18176;49.502;11.754;2023-05-16T12:11:00;96633.91;;;27.13;31.31
21185;BME280;18176;49.502;11.754;2023-05-16T12:15:05;96622.31;;;27.41;30.76
21185;BME280;18176;49.502;11.754;2023-05-16T12:19:07;96615.00;;;27.57;31.09
21185;BME280;18176;49.502;11.754;2023-05-16T12:23:10;96609.44;;;27.13;30.82
21185;BME280;18176;49.502;11.754;2023-05-16T12:27:11;96628.72;;;26.60;31.39
21185;BME280;18176;49.502;11.754;2023-05-16T12:31:18;96627.16;;;26.83;31.60
21185;BME280;18176;49.502;11.754;2023-05-16T12:35:30;96645.03;;;26.72;31.45
21185;BME280;18176;49.502;11.754;2023-05-16T12:39:36;96647.09;;;25.73;32.53
21185;BME280;18176;49.502;11.754;2023-05-16T12:43:37;96654.84;;;25.96;32.46
21185;BME280;18176;49.502;11.754;2023-05-16T12:47:40;96655.38;;;25.89;32.59
21185;BME280;18176;49.502;11.754;2023-05-16T12:51:47;96653.81;;;25.67;32.63
21185;BME280;18176;49.502;11.754;2023-05-16T12:55:48;96675.63;;;25.09;32.30
21185;BME280;18176;49.502;11.754;2023-05-16T12:59:49;96666.94;;;25.45;32.22
21185;BME280;18176;49.502;11.754;2023-05-16T13:03:52;96668.16;;;24.77;32.85
21185;BME280;18176;49.502;11.754;2023-05-16T13:07:52;96674.28;;;24.57;33.40
21185;BME280;18176;49.502;11.754;2023-05-16T13:11:53;96676.56;;;24.75;33.85
21185;BME280;18176;49.502;11.754;2023-05-16T13:15:53;96677.47;;;24.59;33.90
21185;BME280;18176;49.502;11.754;2023-05-16T13:19:56;96683.56;;;24.47;33.33
21185;BME280;18176;49.502;11.754;2023-05-16T13:23:57;96695.84;;;24.91;33.45
21185;BME280;18176;49.502;11.754;2023-05-16T13:27:57;96693.19;;;25.03;33.27
21185;BME280;18176;49.502;11.754;2023-05-16T13:31:57;96700.50;;;24.82;33.50
21185;BME280;18176;49.502;11.754;2023-05-16T13:36:01;96712.28;;;24.39;34.83
21185;BME280;18176;49.502;11.754;2023-05-16T13:40:05;96709.09;;;24.37;35.28
21185;BME280;18176;49.502;11.754;2023-05-16T13:44:07;96716.47;;;24.11;35.12
21185;BME280;18176;49.502;11.754;2023-05-16T13:48:07;96708.63;;;24.35;34.54
21185;BME280;18176;49.502;11.754;2023-05-16T13:52:10;96717.09;;;24.08;35.13
21185;BME280;18176;49.502;11.754;2023-05-16T13:56:11;96716.16;;;23.87;36.25
21185;BME280;18176;49.502;11.754;2023-05-16T14:00:12;96713.75;;;24.03;35.78
21185;BME280;18176;49.502;11.754;2023-05-16T14:04:33;96718.88;;;23.70;35.67
21185;BME280;18176;49.502;11.754;2023-05-16T14:08:36;96725.06;;;23.88;35.88
21185;BME280;18176;49.502;11.754;2023-05-16T14:12:36;96735.41;;;23.34;36.73
21185;BME280;18176;49.502;11.754;2023-05-16T14:16:39;96731.91;;;23.42;36.82
21185;BME280;18176;49.502;11.754;2023-05-16T14:20:42;96746.69;;;23.45;37.19
21185;BME280;18176;49.502;11.754;2023-05-16T14:24:45;96737.28;;;23.34;37.39
21185;BME280;18176;49.502;11.754;2023-05-16T14:28:45;96750.88;;;23.12;37.90
21185;BME280;18176;49.502;11.754;2023-05-16T14:32:46;96748.81;;;23.09;37.99
21185;BME280;18176;49.502;11.754;2023-05-16T14:36:46;96749.38;;;22.58;38.36
21185;BME280;18176;49.502;11.754;2023-05-16T14:40:49;96740.16;;;22.81;37.92
21185;BME280;18176;49.502;11.754;2023-05-16T14:44:50;96759.06;;;22.81;38.45
21185;BME280;18176;49.502;11.754;2023-05-16T14:48:50;96758.25;;;22.80;38.61
21185;BME280;18176;49.502;11.754;2023-05-16T14:52:50;96756.13;;;23.17;37.83
21185;BME280;18176;49.502;11.754;2023-05-16T14:56:53;96759.13;;;23.63;36.98
21185;BME280;18176;49.502;11.754;2023-05-16T15:00:56;96755.00;;;23.83;36.74
21185;BME280;18176;49.502;11.754;2023-05-16T15:04:57;96757.03;;;23.60;36.67
21185;BME280;18176;49.502;11.754;2023-05-16T15:08:57;96757.41;;;23.11;37.65
21185;BME280;18176;49.502;11.754;2023-05-16T15:13:00;96756.31;;;22.72;38.44
21185;BME280;18176;49.502;11.754;2023-05-16T15:17:00;96774.91;;;23.04;37.15
21185;BME280;18176;49.502;11.754;2023-05-16T15:21:05;96769.88;;;22.89;37.25
21185;BME280;18176;49.502;11.754;2023-05-16T15:25:08;96780.03;;;22.53;38.26
21185;BME280;18176;49.502;11.754;2023-05-16T15:29:11;96782.88;;;22.04;38.80
21185;BME280;18176;49.502;11.754;2023-05-16T15:33:11;96775.25;;;21.21;39.78
21185;BME280;18176;49.502;11.754;2023-05-16T15:37:12;96780.25;;;21.14;40.28
21185;BME280;18176;49.502;11.754;2023-05-16T15:41:13;96775.41;;;20.70;41.14
21185;BME280;18176;49.502;11.754;2023-05-16T15:45:36;96783.84;;;21.09;40.45
21185;BME280;18176;49.502;11.754;2023-05-16T15:49:37;96783.13;;;21.31;40.33
21185;BME280;18176;49.502;11.754;2023-05-16T15:53:38;96771.31;;;20.72;41.16
21185;BME280;18176;49.502;11.754;2023-05-16T15:57:38;96791.97;;;20.90;41.21
21185;BME280;18176;49.502;11.754;2023-05-16T16:01:42;96790.16;;;20.59;41.42
21185;BME280;18176;49.502;11.754;2023-05-16T16:05:46;96804.50;;;20.03;42.84
21185;BME280;18176;49.502;11.754;2023-05-16T16:09:47;96800.28;;;20.35;42.05
21185;BME280;18176;49.502;11.754;2023-05-16T16:13:48;96808.69;;;20.47;42.46
21185;BME280;18176;49.502;11.754;2023-05-16T16:17:52;96806.59;;;20.44;42.10
21185;BME280;18176;49.502;11.754;2023-05-16T16:21:52;96819.06;;;20.02;43.13
21185;BME280;18176;49.502;11.754;2023-05-16T16:25:53;96812.00;;;19.69;43.88
21185;BME280;18176;49.502;11.754;2023-05-16T16:29:54;96825.53;;;19.64;43.88
21185;BME280;18176;49.502;11.754;2023-05-16T16:33:56;96833.34;;;19.18;44.74
21185;BME280;18176;49.502;11.754;2023-05-16T16:37:57;96841.00;;;19.53;44.56
21185;BME280;18176;49.502;11.754;2023-05-16T16:42:03;96848.47;;;19.33;45.74
21185;BME280;18176;49.502;11.754;2023-05-16T16:46:04;96846.31;;;19.35;45.72
21185;BME280;18176;49.502;11.754;2023-05-16T16:50:08;96854.63;;;19.38;45.78
21185;BME280;18176;49.502;11.754;2023-05-16T16:54:09;96865.22;;;19.25;45.60
21185;BME280;18176;49.502;11.754;2023-05-16T16:58:09;96844.28;;;19.27;45.35
21185;BME280;18176;49.502;11.754;2023-05-16T17:02:09;96872.47;;;19.01;45.31
21185;BME280;18176;49.502;11.754;2023-05-16T17:06:12;96872.34;;;18.87;45.70
21185;BME280;18176;49.502;11.754;2023-05-16T17:10:13;96868.78;;;18.97;45.71
21185;BME280;18176;49.502;11.754;2023-05-16T17:14:14;96881.00;;;19.08;45.68
21185;BME280;18176;49.502;11.754;2023-05-16T17:18:14;96900.22;;;19.20;44.99
21185;BME280;18176;49.502;11.754;2023-05-16T17:22:18;96890.25;;;18.68;45.80
21185;BME280;18176;49.502;11.754;2023-05-16T17:26:19;96866.06;;;18.39;45.60
21185;BME280;18176;49.502;11.754;2023-05-16T17:30:20;96914.09;;;19.03;45.36
21185;BME280;18176;49.502;11.754;2023-05-16T17:34:20;96923.59;;;18.90;44.51
21185;BME280;18176;49.502;11.754;2023-05-16T17:38:23;96923.50;;;19.01;44.02
21185;BME280;18176;49.502;11.754;2023-05-16T17:42:24;96925.97;;;18.63;43.62
21185;BME280;18176;49.502;11.754;2023-05-16T17:46:24;96922.94;;;19.04;43.15
21185;BME280;18176;49.502;11.754;2023-05-16T17:50:25;96932.69;;;18.95;42.29
21185;BME280;18176;49.502;11.754;2023-05-16T17:54:28;96937.31;;;19.18;41.69
21185;BME280;18176;49.502;11.754;2023-05-16T17:58:28;96940.63;;;19.38;41.45
21185;BME280;18176;49.502;11.754;2023-05-16T18:02:29;96948.78;;;19.52;41.12
21185;BME280;18176;49.502;11.754;2023-05-16T18:06:33;96937.34;;;19.13;41.42
21185;BME280;18176;49.502;11.754;2023-05-16T18:10:36;96928.06;;;18.71;41.87
21185;BME280;18176;49.502;11.754;2023-05-16T18:14:48;96940.97;;;18.69;42.27
21185;BME280;18176;49.502;11.754;2023-05-16T18:18:48;96948.25;;;18.64;42.59
21185;BME280;18176;49.502;11.754;2023-05-16T18:22:49;96940.56;;;18.52;42.28
21185;BME280;18176;49.502;11.754;2023-05-16T18:26:52;96951.91;;;18.39;42.80
21185;BME280;18176;49.502;11.754;2023-05-16T18:30:52;96956.88;;;18.12;43.80
21185;BME280;18176;49.502;11.754;2023-05-16T18:34:53;96952.66;;;17.96;44.25
21185;BME280;18176;49.502;11.754;2023-05-16T18:38:53;96905.69;;;17.49;44.40
21185;BME280;18176;49.502;11.754;2023-05-16T18:42:57;96923.34;;;17.66;44.68
21185;BME280;18176;49.502;11.754;2023-05-16T18:46:57;96951.72;;;17.67;44.88
21185;BME280;18176;49.502;11.754;2023-05-16T18:50:58;96944.78;;;17.50;44.83
21185;BME280;18176;49.502;11.754;2023-05-16T18:59:20;96930.41;;;17.21;45.21
21185;BME280;18176;49.502;11.754;2023-05-16T19:03:21;96959.81;;;17.36;45.13
21185;BME280;18176;49.502;11.754;2023-05-16T19:07:21;96982.88;;;17.32;45.47
21185;BME280;18176;49.502;11.754;2023-05-16T19:11:22;96988.81;;;17.24;45.81
21185;BME280;18176;49.502;11.754;2023-05-16T19:15:25;97003.28;;;17.08;47.29
21185;BME280;18176;49.502;11.754;2023-05-16T19:19:26;97003.25;;;16.83;47.38
21185;BME280;18176;49.502;11.754;2023-05-16T19:23:27;97005.41;;;16.76;47.75
21185;BME280;18176;49.502;11.754;2023-05-16T19:27:28;96998.44;;;16.65;47.19
21185;BME280;18176;49.502;11.754;2023-05-16T19:31:31;97001.13;;;16.55;47.37
21185;BME280;18176;49.502;11.754;2023-05-16T19:35:32;97013.69;;;16.54;48.08
21185;BME280;18176;49.502;11.754;2023-05-16T19:39:33;97013.34;;;16.36;48.56
21185;BME280;18176;49.502;11.754;2023-05-16T19:43:34;97002.03;;;16.08;48.94
21185;BME280;18176;49.502;11.754;2023-05-16T19:47:38;97008.44;;;16.07;48.03
21185;BME280;18176;49.502;11.754;2023-05-16T19:51:38;97002.88;;;16.19;47.35
21185;BME280;18176;49.502;11.754;2023-05-16T19:55:39;97014.38;;;16.25;47.10
21185;BME280;18176;49.502;11.754;2023-05-16T19:59:39;97013.34;;;16.36;46.95
21185;BME280;18176;49.502;11.754;2023-05-16T20:03:42;97006.91;;;16.27;47.16
21185;BME280;18176;49.502;11.754;2023-05-16T20:07:44;97002.59;;;16.26;47.03
21185;BME280;18176;49.502;11.754;2023-05-16T20:11:44;97018.66;;;16.26;47.04
21185;BME280;18176;49.502;11.754;2023-05-16T20:15:45;97029.63;;;16.29;46.82
21185;BME280;18176;49.502;11.754;2023-05-16T20:19:48;97028.78;;;16.18;47.23
21185;BME280;18176;49.502;11.754;2023-05-16T20:23:48;97026.13;;;16.13;48.21
21185;BME280;18176;49.502;11.754;2023-05-16T20:27:49;97043.09;;;15.87;49.29
21185;BME280;18176;49.502;11.754;2023-05-16T20:31:50;97029.72;;;15.82;49.20
21185;BME280;18176;49.502;11.754;2023-05-16T20:35:52;97031.78;;;15.65;49.27
21185;BME280;18176;49.502;11.754;2023-05-16T20:39:53;97041.28;;;15.46;50.19
21185;BME280;18176;49.502;11.754;2023-05-16T20:43:53;97045.50;;;15.42;49.96
21185;BME280;18176;49.502;11.754;2023-05-16T20:47:53;97049.44;;;15.34;50.35
21185;BME280;18176;49.502;11.754;2023-05-16T20:51:57;97055.38;;;15.41;50.05
21185;BME280;18176;49.502;11.754;2023-05-16T20:55:57;97046.50;;;15.31;50.71
21185;BME280;18176;49.502;11.754;2023-05-16T20:59:58;97053.03;;;15.13;51.21
21185;BME280;18176;49.502;11.754;2023-05-16T21:04:00;97049.63;;;15.23;51.13
21185;BME280;18176;49.502;11.754;2023-05-16T21:08:04;97027.53;;;14.96;50.98
21185;BME280;18176;49.502;11.754;2023-05-16T21:12:05;97049.75;;;15.06;50.93